Weather reports worldwide

Advertisment
Inverness/Dalcross, United Kingdom (3059): temperature & dewpoint: 12.07.2018 09:00:00 - 18.07.2018 09:00:00 (BST)Inverness/Dalcross, United Kingdom (3059): wind speed: 12.07.2018 09:00:00 - 18.07.2018 09:00:00 (BST)Inverness/Dalcross, United Kingdom (3059): wind direction: 12.07.2018 09:00:00 - 18.07.2018 09:00:00 (BST)Inverness/Dalcross, United Kingdom (3059): visibility: 12.07.2018 09:00:00 - 18.07.2018 09:00:00 (BST)
Date & Time tt [°C] td [°C] ff [km/h] ff [kn] dd vv [km]
18.07.2018 09:00:00 15,0 10,0 15 8 WSW 10
18.07.2018 08:00:00 14,0 11,0 8 4 WSW 10
18.07.2018 07:00:00 12,0 11,0 8 4 SW 10
18.07.2018 06:00:00 10,0 9,0 5 3 SW 10
18.07.2018 05:00:00 8,0 7,0 9 5 SSW 10
18.07.2018 04:00:00 10,0 9,0 5 3 SSW 10
18.07.2018 03:00:00 11,0 9,0 2 1 S 10
18.07.2018 02:00:00 10,0 10,0 2 1 SSW 10
18.07.2018 01:00:00 10,0 9,0 5 3 SW 10
18.07.2018 00:00:00 10,0 9,0 4 2 S 10
17.07.2018 23:00:00 12,0 10,0 4 2 S 10
17.07.2018 22:00:00 14,0 12,0 0 0 N 10
17.07.2018 21:00:00 15,0 12,0 9 5 NE 10
17.07.2018 20:00:00 16,0 12,0 4 2 NE 10
17.07.2018 19:00:00 17,0 11,0 9 5 NW 10
17.07.2018 18:00:00 18,0 12,0 5 3 - 10
17.07.2018 17:00:00 16,0 11,0 16 9 W 10
17.07.2018 16:00:00 16,0 13,0 8 4 SSW 10
17.07.2018 15:00:00 18,0 10,0 9 5 WNW 10
17.07.2018 14:00:00 19,0 11,0 16 9 W 10
17.07.2018 13:00:00 18,0 12,0 21 11 W 10
17.07.2018 12:00:00 18,0 10,0 8 4 WNW 10
17.07.2018 11:00:00 18,0 11,0 8 4 WSW 10
17.07.2018 10:00:00 17,0 12,0 8 4 WSW 10
17.07.2018 09:00:00 15,0 11,0 18 10 SW 10
17.07.2018 08:00:00 14,0 11,0 5 3 - 10
17.07.2018 07:00:00 13,0 10,0 13 7 SW 10
17.07.2018 06:00:00 13,0 10,0 16 9 SW 10
17.07.2018 05:00:00 12,0 10,0 9 5 SW 10
17.07.2018 04:00:00 13,0 9,0 15 8 SW 10
17.07.2018 03:00:00 14,0 9,0 13 7 SW 10
17.07.2018 02:00:00 14,0 9,0 13 7 SSW 10
17.07.2018 01:00:00 13,0 10,0 4 2 SW 10
17.07.2018 00:00:00 13,0 9,0 8 4 SW 10
16.07.2018 23:00:00 13,0 10,0 11 6 SSW 10
16.07.2018 22:00:00 15,0 10,0 11 6 SW 10
16.07.2018 21:00:00 17,0 10,0 16 9 SW 10
16.07.2018 20:00:00 18,0 10,0 16 9 SW 10
16.07.2018 19:00:00 18,0 10,0 22 12 SW 10
16.07.2018 18:00:00 20,0 10,0 18 10 WSW 10
16.07.2018 17:00:00 20,0 10,0 26 14 WSW 10
16.07.2018 16:00:00 20,0 10,0 28 15 SW 10
16.07.2018 15:00:00 20,0 11,0 21 11 W 10
16.07.2018 14:00:00 21,0 12,0 26 14 SW 10
16.07.2018 13:00:00 20,0 12,0 8 4 W 10
16.07.2018 12:00:00 19,0 12,0 13 7 W 10
16.07.2018 11:00:00 17,0 12,0 13 7 SW 10
16.07.2018 10:00:00 16,0 13,0 16 9 WSW 10
16.07.2018 09:00:00 15,0 14,0 21 11 WSW 10
16.07.2018 08:00:00 15,0 14,0 18 10 SW 10
16.07.2018 07:00:00 15,0 14,0 13 7 SW 10
16.07.2018 06:00:00 14,0 13,0 9 5 SW 10
16.07.2018 05:00:00 14,0 14,0 16 9 WSW 6
16.07.2018 04:00:00 16,0 15,0 16 9 W 10
16.07.2018 03:00:00 15,0 15,0 0 0 N 10
16.07.2018 02:00:00 16,0 15,0 2 1 - 10
16.07.2018 01:00:00 16,0 16,0 0 0 N 10
16.07.2018 00:00:00 17,0 16,0 2 1 - 10
15.07.2018 23:00:00 17,0 16,0 2 1 SSE 10
15.07.2018 22:00:00 18,0 17,0 5 3 - 10
15.07.2018 21:00:00 18,0 17,0 8 4 SW 10
15.07.2018 20:00:00 19,0 18,0 0 0 N 10
15.07.2018 19:00:00 19,0 18,0 13 7 WSW 10
15.07.2018 18:00:00 21,0 17,0 16 9 WSW 10
15.07.2018 17:00:00 21,0 18,0 21 11 SW 10
15.07.2018 16:00:00 21,0 17,0 15 8 WSW 10
15.07.2018 15:00:00 21,0 18,0 8 4 WNW 10
15.07.2018 14:00:00 21,0 19,0 4 2 - 10
15.07.2018 13:00:00 19,0 18,0 9 5 WSW 10
15.07.2018 12:00:00 19,0 18,0 13 7 WSW 10
15.07.2018 11:00:00 20,0 17,0 2 1 - 10
15.07.2018 10:00:00 19,0 16,0 0 0 N 10
15.07.2018 09:00:00 19,0 16,0 4 2 W 10
15.07.2018 08:00:00 18,0 16,0 5 3 SSW 10
15.07.2018 07:00:00 18,0 16,0 9 5 SSW 10
15.07.2018 06:00:00 18,0 16,0 8 4 SSW 10
15.07.2018 05:00:00 17,0 15,0 8 4 WSW 10
15.07.2018 04:00:00 17,0 15,0 4 2 - 10
15.07.2018 03:00:00 17,0 15,0 5 3 SW 10
15.07.2018 02:00:00 18,0 15,0 9 5 WSW 10
15.07.2018 01:00:00 17,0 15,0 2 1 SE 10
15.07.2018 00:00:00 17,0 15,0 2 1 - 10
14.07.2018 23:00:00 18,0 14,0 8 4 SSW 10
14.07.2018 22:00:00 18,0 14,0 16 9 SW 10
14.07.2018 21:00:00 18,0 15,0 15 8 SSW 10
14.07.2018 20:00:00 19,0 14,0 28 15 SW 10
14.07.2018 19:00:00 20,0 14,0 29 16 SW 10
14.07.2018 18:00:00 23,0 14,0 41 22 SW 10
14.07.2018 17:00:00 21,0 13,0 39 21 SW 10
14.07.2018 16:00:00 22,0 13,0 41 22 WSW 10
14.07.2018 15:00:00 22,0 12,0 42 23 SW 10
14.07.2018 14:00:00 22,0 12,0 39 21 SW 10
14.07.2018 13:00:00 21,0 13,0 35 19 SW 10
14.07.2018 12:00:00 20,0 12,0 39 21 SW 10
14.07.2018 11:00:00 19,0 13,0 41 22 SW 10
14.07.2018 10:00:00 18,0 12,0 31 17 SW 10
14.07.2018 09:00:00 18,0 12,0 34 18 SW 10
14.07.2018 08:00:00 16,0 12,0 16 9 SSW 10
14.07.2018 07:00:00 15,0 12,0 16 9 SSW 10
14.07.2018 06:00:00 14,0 11,0 13 7 WSW 10
14.07.2018 05:00:00 13,0 11,0 16 9 SW 10
14.07.2018 04:00:00 13,0 11,0 16 9 WSW 10
14.07.2018 03:00:00 12,0 10,0 9 5 SW 10
14.07.2018 02:00:00 12,0 10,0 5 3 SW 10
14.07.2018 01:00:00 12,0 10,0 8 4 SW 10
14.07.2018 00:00:00 12,0 11,0 9 5 SW 10
13.07.2018 23:00:00 13,0 11,0 4 2 - 10
13.07.2018 22:00:00 16,0 13,0 8 4 WNW 10
13.07.2018 21:00:00 17,0 14,0 4 2 - 10
13.07.2018 20:00:00 18,0 15,0 5 3 NE 10
13.07.2018 19:00:00 19,0 15,0 4 2 - 10
13.07.2018 18:00:00 19,0 14,0 8 4 NNW 10
13.07.2018 17:00:00 22,0 14,0 11 6 NW 10
13.07.2018 16:00:00 22,0 14,0 9 5 NNW 10
13.07.2018 15:00:00 21,0 14,0 11 6 NW 10
13.07.2018 14:00:00 21,0 14,0 9 5 NW 10
13.07.2018 13:00:00 19,0 14,0 5 3 - 10
13.07.2018 12:00:00 19,0 14,0 9 5 WNW 10
13.07.2018 11:00:00 17,0 14,0 8 4 SW 10
13.07.2018 10:00:00 16,0 13,0 9 5 W 10
13.07.2018 09:00:00 16,0 13,0 5 3 - 10
13.07.2018 08:00:00 15,0 13,0 5 3 SW 10
13.07.2018 07:00:00 14,0 13,0 5 3 SW 10
13.07.2018 06:00:00 14,0 13,0 8 4 SW 10
13.07.2018 05:00:00 13,0 12,0 4 2 SW 10
13.07.2018 04:00:00 13,0 12,0 4 2 SW 10
13.07.2018 03:00:00 13,0 12,0 2 1 - 10
13.07.2018 02:00:00 13,0 12,0 2 1 - 10
13.07.2018 01:00:00 13,0 12,0 4 2 NE 10
13.07.2018 00:00:00 13,0 11,0 5 3 NE 10
12.07.2018 23:00:00 14,0 12,0 8 4 ENE 10
12.07.2018 22:00:00 15,0 12,0 8 4 ENE 10
12.07.2018 21:00:00 15,0 12,0 16 9 NE 10
12.07.2018 20:00:00 16,0 12,0 21 11 NE 10
12.07.2018 19:00:00 17,0 12,0 18 10 NE 10
12.07.2018 18:00:00 18,0 12,0 18 10 NE 10
12.07.2018 17:00:00 19,0 13,0 16 9 NE 10
12.07.2018 16:00:00 18,0 13,0 16 9 NE 10
12.07.2018 15:00:00 18,0 13,0 11 6 NE 10
12.07.2018 14:00:00 18,0 12,0 11 6 E 10
12.07.2018 13:00:00 17,0 13,0 11 6 E 10
12.07.2018 12:00:00 15,0 14,0 5 3 - 10
12.07.2018 11:00:00 15,0 13,0 8 4 ESE 10
12.07.2018 10:00:00 14,0 13,0 5 3 E 10
12.07.2018 09:00:00 14,0 14,0 2 1 - 10

tt = temperature
td = dewpoint
ff = wind speed
dd = wind direction
vv = visibility

Next stations